Terminal Aerodrome Forecast
Issued by NWS

Current Version | Previous Version | Graphics & Text | Print | Product List | Glossary On
Versions: 1 2 3 4 5 6 7 8 9 10 11 12 13 14 15 16 17 18 19 20 21
469
FTUS41 KPBZ 220528
TAFMGW
TAF
KMGW 220528Z 2206/2306 21003KT P6SM SKC
      TEMPO 2206/2208 3SM BR
     FM221800 26012G22KT P6SM VCSH BKN060
     FM222100 30015G25KT P6SM SCT070
     FM230000 32005KT P6SM SKC=

USA.gov is the U.S. government's official web portal to all federal, state and local government web resources and services.